sensor_id;sensor_type;location;lat;lon;timestamp;temperature;humidity
18131;DHT22;9191;54.324;10.126;2022-11-20T00:01:10;1.60;99.90
18131;DHT22;9191;54.324;10.126;2022-11-20T00:03:38;1.70;99.90
18131;DHT22;9191;54.324;10.126;2022-11-20T00:06:06;1.80;99.90
18131;DHT22;9191;54.324;10.126;2022-11-20T00:08:33;1.80;99.90
18131;DHT22;9191;54.324;10.126;2022-11-20T00:11:02;1.90;99.90
18131;DHT22;9191;54.324;10.126;2022-11-20T00:13:29;2.00;99.90
18131;DHT22;9191;54.324;10.126;2022-11-20T00:15:56;2.10;99.90
18131;DHT22;9191;54.324;10.126;2022-11-20T00:18:23;2.10;99.90
18131;DHT22;9191;54.324;10.126;2022-11-20T00:20:50;2.00;99.90
18131;DHT22;9191;54.324;10.126;2022-11-20T00:23:18;2.00;99.90
18131;DHT22;9191;54.324;10.126;2022-11-20T00:25:44;2.00;99.90
18131;DHT22;9191;54.324;10.126;2022-11-20T00:28:11;2.00;99.90
18131;DHT22;9191;54.324;10.126;2022-11-20T00:30:38;2.00;99.90
18131;DHT22;9191;54.324;10.126;2022-11-20T00:33:04;2.10;99.90
18131;DHT22;9191;54.324;10.126;2022-11-20T00:35:31;2.00;99.90
18131;DHT22;9191;54.324;10.126;2022-11-20T00:37:58;2.10;99.90
18131;DHT22;9191;54.324;10.126;2022-11-20T00:40:26;2.00;99.90
18131;DHT22;9191;54.324;10.126;2022-11-20T00:42:52;2.10;99.90
18131;DHT22;9191;54.324;10.126;2022-11-20T00:45:19;2.10;99.90
18131;DHT22;9191;54.324;10.126;2022-11-20T00:47:46;2.10;99.90
18131;DHT22;9191;54.324;10.126;2022-11-20T00:50:12;2.00;99.90
18131;DHT22;9191;54.324;10.126;2022-11-20T00:52:39;2.10;99.90
18131;DHT22;9191;54.324;10.126;2022-11-20T00:55:06;2.00;99.90
18131;DHT22;9191;54.324;10.126;2022-11-20T00:57:34;2.00;99.90
18131;DHT22;9191;54.324;10.126;2022-11-20T01:00:01;2.00;99.90
18131;DHT22;9191;54.324;10.126;2022-11-20T01:02:28;2.00;99.90
18131;DHT22;9191;54.324;10.126;2022-11-20T01:04:55;2.00;99.90
18131;DHT22;9191;54.324;10.126;2022-11-20T01:07:21;2.00;99.90
18131;DHT22;9191;54.324;10.126;2022-11-20T01:09:48;1.90;99.90
18131;DHT22;9191;54.324;10.126;2022-11-20T01:12:15;1.90;99.90
18131;DHT22;9191;54.324;10.126;2022-11-20T01:14:43;1.90;99.90
18131;DHT22;9191;54.324;10.126;2022-11-20T01:17:09;2.00;99.90
18131;DHT22;9191;54.324;10.126;2022-11-20T01:19:36;1.90;99.90
18131;DHT22;9191;54.324;10.126;2022-11-20T01:22:03;2.00;99.90
18131;DHT22;9191;54.324;10.126;2022-11-20T01:24:29;1.90;99.90
18131;DHT22;9191;54.324;10.126;2022-11-20T01:26:56;2.00;99.90
18131;DHT22;9191;54.324;10.126;2022-11-20T01:29:23;2.00;99.90
18131;DHT22;9191;54.324;10.126;2022-11-20T01:31:51;1.90;99.90
18131;DHT22;9191;54.324;10.126;2022-11-20T01:34:18;2.00;99.90
18131;DHT22;9191;54.324;10.126;2022-11-20T01:36:45;1.90;99.90
18131;DHT22;9191;54.324;10.126;2022-11-20T01:39:13;2.00;99.90
18131;DHT22;9191;54.324;10.126;2022-11-20T01:41:40;1.90;99.90
18131;DHT22;9191;54.324;10.126;2022-11-20T01:47:08;1.90;99.90
18131;DHT22;9191;54.324;10.126;2022-11-20T01:49:36;2.00;99.90
18131;DHT22;9191;54.324;10.126;2022-11-20T01:52:04;2.10;99.90
18131;DHT22;9191;54.324;10.126;2022-11-20T01:54:34;2.00;99.90
18131;DHT22;9191;54.324;10.126;2022-11-20T01:57:01;1.90;99.90
18131;DHT22;9191;54.324;10.126;2022-11-20T01:59:29;2.00;99.90
18131;DHT22;9191;54.324;10.126;2022-11-20T02:01:56;1.90;99.90
18131;DHT22;9191;54.324;10.126;2022-11-20T02:04:25;1.90;99.90
18131;DHT22;9191;54.324;10.126;2022-11-20T02:06:53;1.90;99.90
18131;DHT22;9191;54.324;10.126;2022-11-20T02:09:21;2.00;99.90
18131;DHT22;9191;54.324;10.126;2022-11-20T02:11:48;1.90;99.90
18131;DHT22;9191;54.324;10.126;2022-11-20T02:14:15;2.00;99.90
18131;DHT22;9191;54.324;10.126;2022-11-20T02:16:43;1.90;99.90
18131;DHT22;9191;54.324;10.126;2022-11-20T02:19:13;2.00;99.90
18131;DHT22;9191;54.324;10.126;2022-11-20T02:21:46;2.00;99.90
18131;DHT22;9191;54.324;10.126;2022-11-20T02:24:15;2.00;99.90
18131;DHT22;9191;54.324;10.126;2022-11-20T02:26:45;1.90;99.90
18131;DHT22;9191;54.324;10.126;2022-11-20T02:29:14;2.30;99.90
18131;DHT22;9191;54.324;10.126;2022-11-20T02:31:42;4.90;99.90
18131;DHT22;9191;54.324;10.126;2022-11-20T02:34:10;5.50;99.90
18131;DHT22;9191;54.324;10.126;2022-11-20T02:36:36;4.40;99.90
18131;DHT22;9191;54.324;10.126;2022-11-20T02:39:05;3.70;99.90
18131;DHT22;9191;54.324;10.126;2022-11-20T02:41:34;3.10;99.90
18131;DHT22;9191;54.324;10.126;2022-11-20T02:44:02;2.80;99.90
18131;DHT22;9191;54.324;10.126;2022-11-20T02:46:29;2.60;99.90
18131;DHT22;9191;54.324;10.126;2022-11-20T02:48:56;2.50;99.90
18131;DHT22;9191;54.324;10.126;2022-11-20T02:51:23;2.50;99.90
18131;DHT22;9191;54.324;10.126;2022-11-20T02:53:50;2.50;99.90
18131;DHT22;9191;54.324;10.126;2022-11-20T02:56:17;2.40;99.90
18131;DHT22;9191;54.324;10.126;2022-11-20T02:58:45;2.40;99.90
18131;DHT22;9191;54.324;10.126;2022-11-20T03:01:11;2.30;99.90
18131;DHT22;9191;54.324;10.126;2022-11-20T03:03:38;2.30;99.90
18131;DHT22;9191;54.324;10.126;2022-11-20T03:06:05;2.10;99.90
18131;DHT22;9191;54.324;10.126;2022-11-20T03:08:33;2.10;99.90
18131;DHT22;9191;54.324;10.126;2022-11-20T03:11:01;2.00;99.90
18131;DHT22;9191;54.324;10.126;2022-11-20T03:13:28;2.00;99.90
18131;DHT22;9191;54.324;10.126;2022-11-20T03:15:56;2.00;99.90
18131;DHT22;9191;54.324;10.126;2022-11-20T03:18:23;2.10;99.90
18131;DHT22;9191;54.324;10.126;2022-11-20T03:20:50;2.10;99.90
18131;DHT22;9191;54.324;10.126;2022-11-20T03:23:16;2.10;99.90
18131;DHT22;9191;54.324;10.126;2022-11-20T03:25:43;2.10;99.90
18131;DHT22;9191;54.324;10.126;2022-11-20T03:28:10;2.10;99.90
18131;DHT22;9191;54.324;10.126;2022-11-20T03:30:37;2.00;99.90
18131;DHT22;9191;54.324;10.126;2022-11-20T03:33:05;2.10;99.90
18131;DHT22;9191;54.324;10.126;2022-11-20T03:35:31;2.10;99.90
18131;DHT22;9191;54.324;10.126;2022-11-20T03:37:58;2.10;99.90
18131;DHT22;9191;54.324;10.126;2022-11-20T03:40:25;2.10;99.90
18131;DHT22;9191;54.324;10.126;2022-11-20T03:42:51;2.10;99.90
18131;DHT22;9191;54.324;10.126;2022-11-20T03:45:18;2.10;99.90
18131;DHT22;9191;54.324;10.126;2022-11-20T03:47:45;2.00;99.90
18131;DHT22;9191;54.324;10.126;2022-11-20T03:50:13;2.10;99.90
18131;DHT22;9191;54.324;10.126;2022-11-20T03:52:40;2.10;99.90
18131;DHT22;9191;54.324;10.126;2022-11-20T03:55:07;2.00;99.90
18131;DHT22;9191;54.324;10.126;2022-11-20T03:57:34;2.00;99.90
18131;DHT22;9191;54.324;10.126;2022-11-20T04:00:01;2.00;99.90
18131;DHT22;9191;54.324;10.126;2022-11-20T04:02:28;1.90;99.90
18131;DHT22;9191;54.324;10.126;2022-11-20T04:04:55;1.70;99.90
18131;DHT22;9191;54.324;10.126;2022-11-20T04:07:26;1.70;99.90
18131;DHT22;9191;54.324;10.126;2022-11-20T04:09:53;1.60;99.90
18131;DHT22;9191;54.324;10.126;2022-11-20T04:12:19;1.60;99.90
18131;DHT22;9191;54.324;10.126;2022-11-20T04:14:46;1.60;99.90
18131;DHT22;9191;54.324;10.126;2022-11-20T04:17:13;1.50;99.90
18131;DHT22;9191;54.324;10.126;2022-11-20T04:19:39;1.70;99.90
18131;DHT22;9191;54.324;10.126;2022-11-20T04:22:06;1.70;99.90
18131;DHT22;9191;54.324;10.126;2022-11-20T04:24:35;1.60;99.90
18131;DHT22;9191;54.324;10.126;2022-11-20T04:27:01;1.70;99.90
18131;DHT22;9191;54.324;10.126;2022-11-20T04:29:28;1.60;99.90
18131;DHT22;9191;54.324;10.126;2022-11-20T04:31:55;1.60;99.90
18131;DHT22;9191;54.324;10.126;2022-11-20T04:34:22;1.60;99.90
18131;DHT22;9191;54.324;10.126;2022-11-20T04:36:48;1.60;99.90
18131;DHT22;9191;54.324;10.126;2022-11-20T04:39:15;1.50;99.90
18131;DHT22;9191;54.324;10.126;2022-11-20T04:41:43;1.50;99.90
18131;DHT22;9191;54.324;10.126;2022-11-20T04:44:10;1.50;99.90
18131;DHT22;9191;54.324;10.126;2022-11-20T04:46:38;1.50;99.90
18131;DHT22;9191;54.324;10.126;2022-11-20T04:49:06;1.50;99.90
18131;DHT22;9191;54.324;10.126;2022-11-20T04:51:33;1.50;99.90
18131;DHT22;9191;54.324;10.126;2022-11-20T04:54:00;1.50;99.90
18131;DHT22;9191;54.324;10.126;2022-11-20T04:56:26;1.60;99.90
18131;DHT22;9191;54.324;10.126;2022-11-20T04:58:55;1.50;99.90
18131;DHT22;9191;54.324;10.126;2022-11-20T05:01:22;1.50;99.90
18131;DHT22;9191;54.324;10.126;2022-11-20T05:03:49;1.50;99.90
18131;DHT22;9191;54.324;10.126;2022-11-20T05:06:16;1.40;99.90
18131;DHT22;9191;54.324;10.126;2022-11-20T05:08:43;1.40;99.90
18131;DHT22;9191;54.324;10.126;2022-11-20T05:11:11;1.40;99.90
18131;DHT22;9191;54.324;10.126;2022-11-20T05:13:38;1.40;99.90
18131;DHT22;9191;54.324;10.126;2022-11-20T05:16:07;1.30;99.90
18131;DHT22;9191;54.324;10.126;2022-11-20T05:18:34;1.30;99.90
18131;DHT22;9191;54.324;10.126;2022-11-20T05:21:01;1.30;99.90
18131;DHT22;9191;54.324;10.126;2022-11-20T05:23:30;1.40;99.90
18131;DHT22;9191;54.324;10.126;2022-11-20T05:25:58;1.40;99.90
18131;DHT22;9191;54.324;10.126;2022-11-20T05:28:25;1.30;99.90
18131;DHT22;9191;54.324;10.126;2022-11-20T05:30:52;1.20;99.90
18131;DHT22;9191;54.324;10.126;2022-11-20T05:33:20;1.30;99.90
18131;DHT22;9191;54.324;10.126;2022-11-20T05:35:47;1.30;99.90
18131;DHT22;9191;54.324;10.126;2022-11-20T05:38:14;1.40;99.90
18131;DHT22;9191;54.324;10.126;2022-11-20T05:40:41;1.40;99.90
18131;DHT22;9191;54.324;10.126;2022-11-20T05:43:08;1.40;99.90
18131;DHT22;9191;54.324;10.126;2022-11-20T05:45:34;1.40;99.90
18131;DHT22;9191;54.324;10.126;2022-11-20T05:48:01;1.50;99.90
18131;DHT22;9191;54.324;10.126;2022-11-20T05:50:29;1.50;99.90
18131;DHT22;9191;54.324;10.126;2022-11-20T05:52:57;1.50;99.90
18131;DHT22;9191;54.324;10.126;2022-11-20T05:55:24;1.50;99.90
18131;DHT22;9191;54.324;10.126;2022-11-20T05:57:51;1.60;99.90
18131;DHT22;9191;54.324;10.126;2022-11-20T06:00:18;1.70;99.90
18131;DHT22;9191;54.324;10.126;2022-11-20T06:02:45;1.60;99.90
18131;DHT22;9191;54.324;10.126;2022-11-20T06:05:11;1.60;99.90
18131;DHT22;9191;54.324;10.126;2022-11-20T06:07:40;1.50;99.90
18131;DHT22;9191;54.324;10.126;2022-11-20T06:10:07;1.50;99.90
18131;DHT22;9191;54.324;10.126;2022-11-20T06:12:33;1.40;99.90
18131;DHT22;9191;54.324;10.126;2022-11-20T06:15:00;1.50;99.90
18131;DHT22;9191;54.324;10.126;2022-11-20T06:17:27;1.40;99.90
18131;DHT22;9191;54.324;10.126;2022-11-20T06:19:53;1.50;99.90
18131;DHT22;9191;54.324;10.126;2022-11-20T06:22:20;1.40;99.90
18131;DHT22;9191;54.324;10.126;2022-11-20T06:24:48;1.50;99.90
18131;DHT22;9191;54.324;10.126;2022-11-20T06:27:15;1.50;99.90
18131;DHT22;9191;54.324;10.126;2022-11-20T06:29:43;1.50;99.90
18131;DHT22;9191;54.324;10.126;2022-11-20T06:32:10;1.50;99.90
18131;DHT22;9191;54.324;10.126;2022-11-20T06:34:36;1.50;99.90
18131;DHT22;9191;54.324;10.126;2022-11-20T06:37:03;1.50;99.90
18131;DHT22;9191;54.324;10.126;2022-11-20T06:39:30;1.50;99.90
18131;DHT22;9191;54.324;10.126;2022-11-20T06:41:58;1.50;99.90
18131;DHT22;9191;54.324;10.126;2022-11-20T06:44:25;1.40;99.90
18131;DHT22;9191;54.324;10.126;2022-11-20T06:46:54;1.40;99.90
18131;DHT22;9191;54.324;10.126;2022-11-20T06:49:21;1.40;99.90
18131;DHT22;9191;54.324;10.126;2022-11-20T06:51:47;1.50;99.90
18131;DHT22;9191;54.324;10.126;2022-11-20T06:54:14;1.50;99.90
18131;DHT22;9191;54.324;10.126;2022-11-20T06:56:46;1.50;99.90
18131;DHT22;9191;54.324;10.126;2022-11-20T06:59:14;1.50;99.90
18131;DHT22;9191;54.324;10.126;2022-11-20T07:01:41;1.60;99.90
18131;DHT22;9191;54.324;10.126;2022-11-20T07:04:07;1.60;99.90
18131;DHT22;9191;54.324;10.126;2022-11-20T07:06:34;1.70;99.90
18131;DHT22;9191;54.324;10.126;2022-11-20T07:09:01;1.70;99.90
18131;DHT22;9191;54.324;10.126;2022-11-20T07:11:28;1.90;99.90
18131;DHT22;9191;54.324;10.126;2022-11-20T07:13:54;1.80;99.90
18131;DHT22;9191;54.324;10.126;2022-11-20T07:16:26;1.80;99.90
18131;DHT22;9191;54.324;10.126;2022-11-20T07:18:53;1.70;99.90
18131;DHT22;9191;54.324;10.126;2022-11-20T07:21:20;1.60;99.90
18131;DHT22;9191;54.324;10.126;2022-11-20T07:23:47;1.60;99.90
18131;DHT22;9191;54.324;10.126;2022-11-20T07:26:13;1.50;99.90
18131;DHT22;9191;54.324;10.126;2022-11-20T07:28:43;1.60;99.90
18131;DHT22;9191;54.324;10.126;2022-11-20T07:31:10;1.70;99.90
18131;DHT22;9191;54.324;10.126;2022-11-20T07:33:42;1.60;99.90
18131;DHT22;9191;54.324;10.126;2022-11-20T07:36:08;1.60;99.90
18131;DHT22;9191;54.324;10.126;2022-11-20T07:38:36;1.70;99.90
18131;DHT22;9191;54.324;10.126;2022-11-20T07:41:03;1.70;99.90
18131;DHT22;9191;54.324;10.126;2022-11-20T07:43:33;1.80;99.90
18131;DHT22;9191;54.324;10.126;2022-11-20T07:46:02;1.80;99.90
18131;DHT22;9191;54.324;10.126;2022-11-20T07:48:32;1.80;99.90
18131;DHT22;9191;54.324;10.126;2022-11-20T07:51:00;2.00;99.90
18131;DHT22;9191;54.324;10.126;2022-11-20T07:53:27;2.00;99.90
18131;DHT22;9191;54.324;10.126;2022-11-20T07:55:53;2.10;99.90
18131;DHT22;9191;54.324;10.126;2022-11-20T07:58:20;2.20;99.90
18131;DHT22;9191;54.324;10.126;2022-11-20T08:00:47;2.00;99.90
18131;DHT22;9191;54.324;10.126;2022-11-20T08:03:14;2.10;99.90
18131;DHT22;9191;54.324;10.126;2022-11-20T08:05:40;2.00;99.90
18131;DHT22;9191;54.324;10.126;2022-11-20T08:08:11;2.10;99.90
18131;DHT22;9191;54.324;10.126;2022-11-20T08:10:37;2.10;99.90
18131;DHT22;9191;54.324;10.126;2022-11-20T08:13:08;2.20;99.90
18131;DHT22;9191;54.324;10.126;2022-11-20T08:15:52;2.10;99.90
18131;DHT22;9191;54.324;10.126;2022-11-20T08:18:19;2.10;99.90
18131;DHT22;9191;54.324;10.126;2022-11-20T08:20:49;2.10;99.90
18131;DHT22;9191;54.324;10.126;2022-11-20T08:23:19;2.00;99.90
18131;DHT22;9191;54.324;10.126;2022-11-20T08:25:48;2.10;99.90
18131;DHT22;9191;54.324;10.126;2022-11-20T08:28:15;2.00;99.90
18131;DHT22;9191;54.324;10.126;2022-11-20T08:30:42;2.10;99.90
18131;DHT22;9191;54.324;10.126;2022-11-20T08:33:11;2.10;99.90
18131;DHT22;9191;54.324;10.126;2022-11-20T08:35:38;2.20;99.90
18131;DHT22;9191;54.324;10.126;2022-11-20T08:38:06;2.50;99.90
18131;DHT22;9191;54.324;10.126;2022-11-20T08:40:34;3.20;99.90
18131;DHT22;9191;54.324;10.126;2022-11-20T08:43:01;3.70;99.90
18131;DHT22;9191;54.324;10.126;2022-11-20T08:45:28;3.80;99.90
18131;DHT22;9191;54.324;10.126;2022-11-20T08:47:59;3.80;99.90
18131;DHT22;9191;54.324;10.126;2022-11-20T08:50:25;4.00;99.90
18131;DHT22;9191;54.324;10.126;2022-11-20T08:52:52;3.80;99.90
18131;DHT22;9191;54.324;10.126;2022-11-20T08:55:21;3.50;99.90
18131;DHT22;9191;54.324;10.126;2022-11-20T08:57:49;3.20;99.90
18131;DHT22;9191;54.324;10.126;2022-11-20T09:00:16;3.00;99.90
18131;DHT22;9191;54.324;10.126;2022-11-20T09:02:43;2.80;99.90
18131;DHT22;9191;54.324;10.126;2022-11-20T09:05:11;2.60;99.90
18131;DHT22;9191;54.324;10.126;2022-11-20T09:07:37;2.50;99.90
18131;DHT22;9191;54.324;10.126;2022-11-20T09:10:05;2.50;99.90
18131;DHT22;9191;54.324;10.126;2022-11-20T09:12:33;2.40;99.90
18131;DHT22;9191;54.324;10.126;2022-11-20T09:15:01;2.30;99.90
18131;DHT22;9191;54.324;10.126;2022-11-20T09:17:28;2.20;99.90
18131;DHT22;9191;54.324;10.126;2022-11-20T09:19:55;2.10;99.90
18131;DHT22;9191;54.324;10.126;2022-11-20T09:22:25;2.20;99.90
18131;DHT22;9191;54.324;10.126;2022-11-20T09:24:52;2.20;99.90
18131;DHT22;9191;54.324;10.126;2022-11-20T09:27:18;2.30;99.90
18131;DHT22;9191;54.324;10.126;2022-11-20T09:29:47;2.30;99.90
18131;DHT22;9191;54.324;10.126;2022-11-20T09:32:15;2.30;99.90
18131;DHT22;9191;54.324;10.126;2022-11-20T09:34:41;2.30;99.90
18131;DHT22;9191;54.324;10.126;2022-11-20T09:37:08;2.40;99.90
18131;DHT22;9191;54.324;10.126;2022-11-20T09:39:35;2.40;99.90
18131;DHT22;9191;54.324;10.126;2022-11-20T09:42:20;2.40;99.90
18131;DHT22;9191;54.324;10.126;2022-11-20T09:44:52;2.50;99.90
18131;DHT22;9191;54.324;10.126;2022-11-20T09:47:23;2.60;99.90
18131;DHT22;9191;54.324;10.126;2022-11-20T09:49:57;2.40;99.90
18131;DHT22;9191;54.324;10.126;2022-11-20T09:52:30;2.50;99.90
18131;DHT22;9191;54.324;10.126;2022-11-20T09:54:59;2.40;99.90
18131;DHT22;9191;54.324;10.126;2022-11-20T09:57:29;2.50;99.90
18131;DHT22;9191;54.324;10.126;2022-11-20T09:59:58;2.60;99.90
18131;DHT22;9191;54.324;10.126;2022-11-20T10:02:29;2.70;99.90
18131;DHT22;9191;54.324;10.126;2022-11-20T10:04:57;2.80;99.90
18131;DHT22;9191;54.324;10.126;2022-11-20T10:07:27;2.80;99.90
18131;DHT22;9191;54.324;10.126;2022-11-20T10:09:56;2.90;99.90
18131;DHT22;9191;54.324;10.126;2022-11-20T10:12:25;3.00;99.90
18131;DHT22;9191;54.324;10.126;2022-11-20T10:14:56;3.10;99.90
18131;DHT22;9191;54.324;10.126;2022-11-20T10:17:30;3.20;99.90
18131;DHT22;9191;54.324;10.126;2022-11-20T10:20:09;3.20;99.90
18131;DHT22;9191;54.324;10.126;2022-11-20T10:22:43;3.10;99.90
18131;DHT22;9191;54.324;10.126;2022-11-20T10:25:14;3.10;99.90
18131;DHT22;9191;54.324;10.126;2022-11-20T10:27:48;3.10;99.90
18131;DHT22;9191;54.324;10.126;2022-11-20T10:30:17;3.10;99.90
18131;DHT22;9191;54.324;10.126;2022-11-20T10:32:48;3.10;99.90
18131;DHT22;9191;54.324;10.126;2022-11-20T10:35:19;3.10;99.90
18131;DHT22;9191;54.324;10.126;2022-11-20T10:37:47;3.20;99.90
18131;DHT22;9191;54.324;10.126;2022-11-20T10:40:18;3.40;99.90
18131;DHT22;9191;54.324;10.126;2022-11-20T10:42:47;3.30;99.90
18131;DHT22;9191;54.324;10.126;2022-11-20T10:45:19;3.30;99.90
18131;DHT22;9191;54.324;10.126;2022-11-20T10:47:48;3.40;99.90
18131;DHT22;9191;54.324;10.126;2022-11-20T10:50:16;3.50;99.90
18131;DHT22;9191;54.324;10.126;2022-11-20T10:52:46;3.60;99.90
18131;DHT22;9191;54.324;10.126;2022-11-20T10:55:20;3.70;99.90
18131;DHT22;9191;54.324;10.126;2022-11-20T10:57:54;3.60;99.90
18131;DHT22;9191;54.324;10.126;2022-11-20T11:00:25;4.40;99.90
18131;DHT22;9191;54.324;10.126;2022-11-20T11:02:53;5.90;99.90
18131;DHT22;9191;54.324;10.126;2022-11-20T11:05:25;7.50;99.90
18131;DHT22;9191;54.324;10.126;2022-11-20T11:07:54;7.50;99.90
18131;DHT22;9191;54.324;10.126;2022-11-20T11:10:23;7.80;99.90
18131;DHT22;9191;54.324;10.126;2022-11-20T11:12:50;8.40;99.90
18131;DHT22;9191;54.324;10.126;2022-11-20T11:15:24;7.10;99.90
18131;DHT22;9191;54.324;10.126;2022-11-20T11:17:53;6.00;99.90
18131;DHT22;9191;54.324;10.126;2022-11-20T11:20:20;5.30;99.90
18131;DHT22;9191;54.324;10.126;2022-11-20T11:22:47;4.80;99.90
18131;DHT22;9191;54.324;10.126;2022-11-20T11:25:21;4.20;99.90
18131;DHT22;9191;54.324;10.126;2022-11-20T11:27:49;3.90;99.90
18131;DHT22;9191;54.324;10.126;2022-11-20T11:30:16;3.70;99.90
18131;DHT22;9191;54.324;10.126;2022-11-20T11:32:43;3.40;99.90
18131;DHT22;9191;54.324;10.126;2022-11-20T11:35:20;3.40;99.90
18131;DHT22;9191;54.324;10.126;2022-11-20T11:37:47;3.30;99.90
18131;DHT22;9191;54.324;10.126;2022-11-20T11:40:14;3.20;99.90
18131;DHT22;9191;54.324;10.126;2022-11-20T11:42:41;3.40;99.90
18131;DHT22;9191;54.324;10.126;2022-11-20T11:45:11;3.20;99.90
18131;DHT22;9191;54.324;10.126;2022-11-20T11:47:43;3.20;99.90
18131;DHT22;9191;54.324;10.126;2022-11-20T11:50:14;3.10;99.90
18131;DHT22;9191;54.324;10.126;2022-11-20T11:52:44;3.20;99.90
18131;DHT22;9191;54.324;10.126;2022-11-20T11:55:15;3.20;99.90
18131;DHT22;9191;54.324;10.126;2022-11-20T11:57:44;3.20;99.90
18131;DHT22;9191;54.324;10.126;2022-11-20T12:00:13;3.20;99.90
18131;DHT22;9191;54.324;10.126;2022-11-20T12:02:43;3.10;99.90
18131;DHT22;9191;54.324;10.126;2022-11-20T12:05:16;3.10;99.90
18131;DHT22;9191;54.324;10.126;2022-11-20T12:07:47;3.20;99.90
18131;DHT22;9191;54.324;10.126;2022-11-20T12:10:15;3.00;99.90
18131;DHT22;9191;54.324;10.126;2022-11-20T12:12:44;3.10;99.90
18131;DHT22;9191;54.324;10.126;2022-11-20T12:15:18;3.10;99.90
18131;DHT22;9191;54.324;10.126;2022-11-20T12:17:48;3.20;99.90
18131;DHT22;9191;54.324;10.126;2022-11-20T12:20:15;3.30;99.90
18131;DHT22;9191;54.324;10.126;2022-11-20T12:22:44;3.40;99.90
18131;DHT22;9191;54.324;10.126;2022-11-20T12:25:17;3.40;99.90
18131;DHT22;9191;54.324;10.126;2022-11-20T12:27:59;3.40;99.90
18131;DHT22;9191;54.324;10.126;2022-11-20T12:30:29;3.40;99.90
18131;DHT22;9191;54.324;10.126;2022-11-20T12:33:04;3.40;99.90
18131;DHT22;9191;54.324;10.126;2022-11-20T12:35:56;3.40;99.90
18131;DHT22;9191;54.324;10.126;2022-11-20T12:41:22;3.70;99.90
18131;DHT22;9191;54.324;10.126;2022-11-20T12:44:15;3.80;99.90
18131;DHT22;9191;54.324;10.126;2022-11-20T12:47:06;3.70;99.90
18131;DHT22;9191;54.324;10.126;2022-11-20T12:49:38;3.60;99.90
18131;DHT22;9191;54.324;10.126;2022-11-20T12:52:14;3.80;99.90
18131;DHT22;9191;54.324;10.126;2022-11-20T12:54:46;3.80;99.90
18131;DHT22;9191;54.324;10.126;2022-11-20T12:57:18;4.00;99.90
18131;DHT22;9191;54.324;10.126;2022-11-20T12:59:55;4.20;99.90
18131;DHT22;9191;54.324;10.126;2022-11-20T13:02:29;4.20;99.90
18131;DHT22;9191;54.324;10.126;2022-11-20T13:05:05;4.20;99.90
18131;DHT22;9191;54.324;10.126;2022-11-20T13:07:39;4.10;99.90
18131;DHT22;9191;54.324;10.126;2022-11-20T13:10:10;4.10;99.90
18131;DHT22;9191;54.324;10.126;2022-11-20T13:12:45;4.00;99.90
18131;DHT22;9191;54.324;10.126;2022-11-20T13:15:21;3.90;99.90
18131;DHT22;9191;54.324;10.126;2022-11-20T13:17:52;3.80;99.90
18131;DHT22;9191;54.324;10.126;2022-11-20T13:20:20;3.90;99.90
18131;DHT22;9191;54.324;10.126;2022-11-20T13:22:47;4.00;99.90
18131;DHT22;9191;54.324;10.126;2022-11-20T13:25:24;4.00;99.90
18131;DHT22;9191;54.324;10.126;2022-11-20T13:27:52;4.20;99.90
18131;DHT22;9191;54.324;10.126;2022-11-20T13:30:20;4.10;99.90
18131;DHT22;9191;54.324;10.126;2022-11-20T13:32:47;4.10;99.90
18131;DHT22;9191;54.324;10.126;2022-11-20T13:35:23;4.10;99.90
18131;DHT22;9191;54.324;10.126;2022-11-20T13:37:58;4.20;99.90
18131;DHT22;9191;54.324;10.126;2022-11-20T13:40:25;4.00;99.90
18131;DHT22;9191;54.324;10.126;2022-11-20T13:42:56;3.80;99.90
18131;DHT22;9191;54.324;10.126;2022-11-20T13:45:24;3.60;99.90
18131;DHT22;9191;54.324;10.126;2022-11-20T13:47:52;3.60;99.90
18131;DHT22;9191;54.324;10.126;2022-11-20T13:50:19;3.50;99.90
18131;DHT22;9191;54.324;10.126;2022-11-20T13:52:49;3.50;99.90
18131;DHT22;9191;54.324;10.126;2022-11-20T13:55:22;3.50;99.90
18131;DHT22;9191;54.324;10.126;2022-11-20T13:57:57;3.60;99.90
18131;DHT22;9191;54.324;10.126;2022-11-20T14:00:26;3.60;99.90
18131;DHT22;9191;54.324;10.126;2022-11-20T14:03:00;3.60;99.90
18131;DHT22;9191;54.324;10.126;2022-11-20T14:05:28;3.60;99.90
18131;DHT22;9191;54.324;10.126;2022-11-20T14:07:56;3.40;99.90
18131;DHT22;9191;54.324;10.126;2022-11-20T14:10:24;3.40;99.90
18131;DHT22;9191;54.324;10.126;2022-11-20T14:12:51;3.50;99.90
18131;DHT22;9191;54.324;10.126;2022-11-20T14:15:27;3.50;99.90
18131;DHT22;9191;54.324;10.126;2022-11-20T14:17:54;3.50;99.90
18131;DHT22;9191;54.324;10.126;2022-11-20T14:20:20;3.30;99.90
18131;DHT22;9191;54.324;10.126;2022-11-20T14:22:50;3.30;99.90
18131;DHT22;9191;54.324;10.126;2022-11-20T14:25:19;3.20;99.90
18131;DHT22;9191;54.324;10.126;2022-11-20T14:27:50;3.10;99.90
18131;DHT22;9191;54.324;10.126;2022-11-20T14:30:18;3.00;99.90
18131;DHT22;9191;54.324;10.126;2022-11-20T14:32:46;3.00;99.90
18131;DHT22;9191;54.324;10.126;2022-11-20T14:35:14;2.90;99.90
18131;DHT22;9191;54.324;10.126;2022-11-20T14:37:44;2.80;99.90
18131;DHT22;9191;54.324;10.126;2022-11-20T14:40:28;2.70;99.90
18131;DHT22;9191;54.324;10.126;2022-11-20T14:42:55;2.60;99.90
18131;DHT22;9191;54.324;10.126;2022-11-20T14:45:22;2.60;99.90
18131;DHT22;9191;54.324;10.126;2022-11-20T14:47:50;2.60;99.90
18131;DHT22;9191;54.324;10.126;2022-11-20T14:50:19;2.60;99.90
18131;DHT22;9191;54.324;10.126;2022-11-20T14:52:52;2.50;99.90
18131;DHT22;9191;54.324;10.126;2022-11-20T14:55:25;2.40;99.90
18131;DHT22;9191;54.324;10.126;2022-11-20T14:57:56;2.30;99.90
18131;DHT22;9191;54.324;10.126;2022-11-20T15:00:23;2.20;99.90
18131;DHT22;9191;54.324;10.126;2022-11-20T15:02:53;2.30;99.90
18131;DHT22;9191;54.324;10.126;2022-11-20T15:05:21;2.20;99.90
18131;DHT22;9191;54.324;10.126;2022-11-20T15:07:49;2.20;99.90
18131;DHT22;9191;54.324;10.126;2022-11-20T15:10:25;2.10;99.90
18131;DHT22;9191;54.324;10.126;2022-11-20T15:12:53;2.00;99.90
18131;DHT22;9191;54.324;10.126;2022-11-20T15:15:21;2.00;99.90
18131;DHT22;9191;54.324;10.126;2022-11-20T15:17:49;1.90;99.90
18131;DHT22;9191;54.324;10.126;2022-11-20T15:20:17;1.90;99.90
18131;DHT22;9191;54.324;10.126;2022-11-20T15:22:44;1.90;99.90
18131;DHT22;9191;54.324;10.126;2022-11-20T15:25:12;1.80;99.90
18131;DHT22;9191;54.324;10.126;2022-11-20T15:27:39;1.70;99.90
18131;DHT22;9191;54.324;10.126;2022-11-20T15:30:11;1.70;99.90
18131;DHT22;9191;54.324;10.126;2022-11-20T15:32:38;1.70;99.90
18131;DHT22;9191;54.324;10.126;2022-11-20T15:35:05;1.70;99.90
18131;DHT22;9191;54.324;10.126;2022-11-20T15:37:34;1.60;99.90
18131;DHT22;9191;54.324;10.126;2022-11-20T15:40:01;1.50;99.90
18131;DHT22;9191;54.324;10.126;2022-11-20T15:42:28;1.40;99.90
18131;DHT22;9191;54.324;10.126;2022-11-20T15:44:55;1.40;99.90
18131;DHT22;9191;54.324;10.126;2022-11-20T15:47:23;1.30;99.90
18131;DHT22;9191;54.324;10.126;2022-11-20T15:49:51;1.30;99.90
18131;DHT22;9191;54.324;10.126;2022-11-20T15:54:57;1.20;99.90
18131;DHT22;9191;54.324;10.126;2022-11-20T15:57:26;1.20;99.90
18131;DHT22;9191;54.324;10.126;2022-11-20T15:59:55;1.30;99.90
18131;DHT22;9191;54.324;10.126;2022-11-20T16:02:23;1.30;99.90